Albany, New Hampshire
Current Conditions -  °F | °C
As of 12:54 PM on Thursday 30 Oct 2014 (Local Time) from KIZG Reporting Station
Clear Clear  
Wind Chill: 55°   Ceiling: Unl
Heat Index: 55°   Visibility: 10mi
Dew Point: 35°   Wind: 8mph
Humidity: 47%   Direction: 290°WNW
Pressure: 29.89"   Gusts: 18mph
Location:  43.9735°N, 71.2576°W
Report Text: KIZG 301654Z AUTO 29007G16KT 260V320 10SM CLR 13/02 A2989 RMK AO2 SLP124 T01280017
Loading
Personal Weather Stations






























Interactive Weather Map
Tropical Storm Tracking
New forecast layout! Learn more

10-Day Weather Forecast

Advertisements
Track Severe Weather on mobile